sensor_id;sensor_type;location;lat;lon;timestamp;temperature;humidity
6098;DHT22;3077;50.922;6.584;2023-11-19T00:00:11;13.00;99.90
6098;DHT22;3077;50.922;6.584;2023-11-19T00:02:40;13.00;99.90
6098;DHT22;3077;50.922;6.584;2023-11-19T00:05:06;13.00;99.90
6098;DHT22;3077;50.922;6.584;2023-11-19T00:07:35;13.00;99.90
6098;DHT22;3077;50.922;6.584;2023-11-19T00:10:01;13.00;99.90
6098;DHT22;3077;50.922;6.584;2023-11-19T00:12:37;13.00;99.90
6098;DHT22;3077;50.922;6.584;2023-11-19T00:15:03;13.00;99.90
6098;DHT22;3077;50.922;6.584;2023-11-19T00:17:29;13.00;99.90
6098;DHT22;3077;50.922;6.584;2023-11-19T00:19:54;13.10;99.90
6098;DHT22;3077;50.922;6.584;2023-11-19T00:22:20;13.00;99.90
6098;DHT22;3077;50.922;6.584;2023-11-19T00:24:47;13.10;99.90
6098;DHT22;3077;50.922;6.584;2023-11-19T00:27:12;13.10;99.90
6098;DHT22;3077;50.922;6.584;2023-11-19T00:29:38;13.10;99.90
6098;DHT22;3077;50.922;6.584;2023-11-19T00:32:04;13.10;99.90
6098;DHT22;3077;50.922;6.584;2023-11-19T00:34:30;13.10;99.90
6098;DHT22;3077;50.922;6.584;2023-11-19T00:36:56;13.10;99.90
6098;DHT22;3077;50.922;6.584;2023-11-19T00:39:22;13.00;99.90
6098;DHT22;3077;50.922;6.584;2023-11-19T00:41:48;13.10;99.90
6098;DHT22;3077;50.922;6.584;2023-11-19T00:44:14;13.00;99.90
6098;DHT22;3077;50.922;6.584;2023-11-19T00:46:39;13.00;99.90
6098;DHT22;3077;50.922;6.584;2023-11-19T00:49:05;13.00;99.90
6098;DHT22;3077;50.922;6.584;2023-11-19T00:51:31;13.00;99.90
6098;DHT22;3077;50.922;6.584;2023-11-19T00:53:59;13.00;99.90
6098;DHT22;3077;50.922;6.584;2023-11-19T00:56:26;13.10;99.90
6098;DHT22;3077;50.922;6.584;2023-11-19T01:01:17;13.00;99.90
6098;DHT22;3077;50.922;6.584;2023-11-19T01:03:43;12.90;99.90
6098;DHT22;3077;50.922;6.584;2023-11-19T01:06:09;12.90;99.90
6098;DHT22;3077;50.922;6.584;2023-11-19T01:08:34;12.80;99.90
6098;DHT22;3077;50.922;6.584;2023-11-19T01:11:03;12.80;99.90
6098;DHT22;3077;50.922;6.584;2023-11-19T01:13:29;12.80;99.90
6098;DHT22;3077;50.922;6.584;2023-11-19T01:15:55;12.80;99.90
6098;DHT22;3077;50.922;6.584;2023-11-19T01:18:21;12.80;99.90
6098;DHT22;3077;50.922;6.584;2023-11-19T01:20:47;12.80;99.90
6098;DHT22;3077;50.922;6.584;2023-11-19T01:23:13;12.80;99.90
6098;DHT22;3077;50.922;6.584;2023-11-19T01:25:38;12.90;99.90
6098;DHT22;3077;50.922;6.584;2023-11-19T01:28:04;13.00;99.90
6098;DHT22;3077;50.922;6.584;2023-11-19T01:30:30;13.00;99.90
6098;DHT22;3077;50.922;6.584;2023-11-19T01:32:56;13.00;99.90
6098;DHT22;3077;50.922;6.584;2023-11-19T01:35:21;13.10;99.90
6098;DHT22;3077;50.922;6.584;2023-11-19T01:37:48;13.10;99.90
6098;DHT22;3077;50.922;6.584;2023-11-19T01:40:14;13.10;99.90
6098;DHT22;3077;50.922;6.584;2023-11-19T01:42:41;13.10;99.90
6098;DHT22;3077;50.922;6.584;2023-11-19T01:45:07;13.20;99.90
6098;DHT22;3077;50.922;6.584;2023-11-19T01:47:34;13.20;99.90
6098;DHT22;3077;50.922;6.584;2023-11-19T01:50:01;13.10;99.90
6098;DHT22;3077;50.922;6.584;2023-11-19T01:52:33;13.20;99.90
6098;DHT22;3077;50.922;6.584;2023-11-19T01:54:59;13.30;99.90
6098;DHT22;3077;50.922;6.584;2023-11-19T01:57:24;13.30;99.90
6098;DHT22;3077;50.922;6.584;2023-11-19T01:59:51;13.50;99.90
6098;DHT22;3077;50.922;6.584;2023-11-19T02:02:18;13.40;99.90
6098;DHT22;3077;50.922;6.584;2023-11-19T02:04:49;13.40;99.90
6098;DHT22;3077;50.922;6.584;2023-11-19T02:07:15;13.50;99.90
6098;DHT22;3077;50.922;6.584;2023-11-19T02:09:43;13.70;99.90
6098;DHT22;3077;50.922;6.584;2023-11-19T02:12:09;13.50;99.90
6098;DHT22;3077;50.922;6.584;2023-11-19T02:14:37;13.50;99.90
6098;DHT22;3077;50.922;6.584;2023-11-19T02:17:02;13.50;99.90
6098;DHT22;3077;50.922;6.584;2023-11-19T02:19:28;13.50;99.90
6098;DHT22;3077;50.922;6.584;2023-11-19T02:21:54;13.60;99.90
6098;DHT22;3077;50.922;6.584;2023-11-19T02:24:22;13.50;99.90
6098;DHT22;3077;50.922;6.584;2023-11-19T02:27:10;13.50;99.90
6098;DHT22;3077;50.922;6.584;2023-11-19T02:29:39;13.50;99.90
6098;DHT22;3077;50.922;6.584;2023-11-19T02:32:05;13.40;99.90
6098;DHT22;3077;50.922;6.584;2023-11-19T02:34:31;13.50;99.90
6098;DHT22;3077;50.922;6.584;2023-11-19T02:36:56;13.40;99.90
6098;DHT22;3077;50.922;6.584;2023-11-19T02:39:22;13.40;99.90
6098;DHT22;3077;50.922;6.584;2023-11-19T02:41:48;13.30;99.90
6098;DHT22;3077;50.922;6.584;2023-11-19T02:44:18;13.40;99.90
6098;DHT22;3077;50.922;6.584;2023-11-19T02:46:43;13.40;99.90
6098;DHT22;3077;50.922;6.584;2023-11-19T02:49:09;13.40;99.90
6098;DHT22;3077;50.922;6.584;2023-11-19T02:51:35;13.40;99.90
6098;DHT22;3077;50.922;6.584;2023-11-19T02:54:01;13.40;99.90
6098;DHT22;3077;50.922;6.584;2023-11-19T02:56:29;13.40;99.90
6098;DHT22;3077;50.922;6.584;2023-11-19T02:58:59;13.40;99.90
6098;DHT22;3077;50.922;6.584;2023-11-19T03:01:28;13.30;99.90
6098;DHT22;3077;50.922;6.584;2023-11-19T03:04:00;13.30;99.90
6098;DHT22;3077;50.922;6.584;2023-11-19T03:06:26;13.30;99.90
6098;DHT22;3077;50.922;6.584;2023-11-19T03:08:52;13.30;99.90
6098;DHT22;3077;50.922;6.584;2023-11-19T03:11:18;13.20;99.90
6098;DHT22;3077;50.922;6.584;2023-11-19T03:13:44;13.20;99.90
6098;DHT22;3077;50.922;6.584;2023-11-19T03:16:09;13.30;99.90
6098;DHT22;3077;50.922;6.584;2023-11-19T03:18:37;13.20;99.90
6098;DHT22;3077;50.922;6.584;2023-11-19T03:21:05;13.20;99.90
6098;DHT22;3077;50.922;6.584;2023-11-19T03:23:31;13.20;99.90
6098;DHT22;3077;50.922;6.584;2023-11-19T03:25:56;13.30;99.90
6098;DHT22;3077;50.922;6.584;2023-11-19T03:28:22;13.30;99.90
6098;DHT22;3077;50.922;6.584;2023-11-19T03:30:48;13.30;99.90
6098;DHT22;3077;50.922;6.584;2023-11-19T03:33:13;13.30;99.90
6098;DHT22;3077;50.922;6.584;2023-11-19T03:35:39;13.30;99.90
6098;DHT22;3077;50.922;6.584;2023-11-19T03:38:06;13.30;99.90
6098;DHT22;3077;50.922;6.584;2023-11-19T03:40:32;13.40;99.90
6098;DHT22;3077;50.922;6.584;2023-11-19T03:42:57;13.40;99.90
6098;DHT22;3077;50.922;6.584;2023-11-19T03:45:26;13.40;99.90
6098;DHT22;3077;50.922;6.584;2023-11-19T03:47:52;13.40;99.90
6098;DHT22;3077;50.922;6.584;2023-11-19T03:50:17;13.40;99.90
6098;DHT22;3077;50.922;6.584;2023-11-19T03:52:46;13.40;99.90
6098;DHT22;3077;50.922;6.584;2023-11-19T03:55:11;13.40;99.90
6098;DHT22;3077;50.922;6.584;2023-11-19T03:57:38;13.40;99.90
6098;DHT22;3077;50.922;6.584;2023-11-19T04:00:04;13.40;99.90
6098;DHT22;3077;50.922;6.584;2023-11-19T04:02:39;13.30;99.90
6098;DHT22;3077;50.922;6.584;2023-11-19T04:05:05;13.30;99.90
6098;DHT22;3077;50.922;6.584;2023-11-19T04:07:32;13.30;99.90
6098;DHT22;3077;50.922;6.584;2023-11-19T04:09:57;13.50;99.90
6098;DHT22;3077;50.922;6.584;2023-11-19T04:12:23;13.30;99.90
6098;DHT22;3077;50.922;6.584;2023-11-19T04:14:49;13.30;99.90
6098;DHT22;3077;50.922;6.584;2023-11-19T04:17:14;13.30;99.90
6098;DHT22;3077;50.922;6.584;2023-11-19T04:19:40;13.30;99.90
6098;DHT22;3077;50.922;6.584;2023-11-19T04:22:07;13.30;99.90
6098;DHT22;3077;50.922;6.584;2023-11-19T04:24:34;13.40;99.90
6098;DHT22;3077;50.922;6.584;2023-11-19T04:27:00;13.40;99.90
6098;DHT22;3077;50.922;6.584;2023-11-19T04:29:25;13.30;99.90
6098;DHT22;3077;50.922;6.584;2023-11-19T04:31:52;13.30;99.90
6098;DHT22;3077;50.922;6.584;2023-11-19T04:34:17;13.30;99.90
6098;DHT22;3077;50.922;6.584;2023-11-19T04:36:43;13.20;99.90
6098;DHT22;3077;50.922;6.584;2023-11-19T04:39:09;13.20;99.90
6098;DHT22;3077;50.922;6.584;2023-11-19T04:41:46;13.10;99.90
6098;DHT22;3077;50.922;6.584;2023-11-19T04:44:12;13.10;99.90
6098;DHT22;3077;50.922;6.584;2023-11-19T04:46:38;13.10;99.90
6098;DHT22;3077;50.922;6.584;2023-11-19T04:49:03;13.10;99.90
6098;DHT22;3077;50.922;6.584;2023-11-19T04:51:30;13.10;99.90
6098;DHT22;3077;50.922;6.584;2023-11-19T04:53:55;13.30;99.90
6098;DHT22;3077;50.922;6.584;2023-11-19T04:56:21;13.10;99.90
6098;DHT22;3077;50.922;6.584;2023-11-19T04:58:48;13.20;99.90
6098;DHT22;3077;50.922;6.584;2023-11-19T05:01:14;13.20;99.90
6098;DHT22;3077;50.922;6.584;2023-11-19T05:03:43;13.10;99.90
6098;DHT22;3077;50.922;6.584;2023-11-19T05:06:09;13.10;99.90
6098;DHT22;3077;50.922;6.584;2023-11-19T05:08:35;13.10;99.90
6098;DHT22;3077;50.922;6.584;2023-11-19T05:11:01;13.10;99.90
6098;DHT22;3077;50.922;6.584;2023-11-19T05:13:26;13.10;99.90
6098;DHT22;3077;50.922;6.584;2023-11-19T05:15:52;13.10;99.90
6098;DHT22;3077;50.922;6.584;2023-11-19T05:18:17;13.00;99.90
6098;DHT22;3077;50.922;6.584;2023-11-19T05:20:44;13.00;99.90
6098;DHT22;3077;50.922;6.584;2023-11-19T05:23:10;13.00;33.10
6098;DHT22;3077;50.922;6.584;2023-11-19T05:25:36;13.00;1.00
6098;DHT22;3077;50.922;6.584;2023-11-19T05:28:02;13.00;1.00
6098;DHT22;3077;50.922;6.584;2023-11-19T05:30:28;13.00;1.00
6098;DHT22;3077;50.922;6.584;2023-11-19T05:32:53;13.00;1.00
6098;DHT22;3077;50.922;6.584;2023-11-19T05:35:19;12.90;1.00
6098;DHT22;3077;50.922;6.584;2023-11-19T05:37:44;12.90;1.00
6098;DHT22;3077;50.922;6.584;2023-11-19T05:40:10;12.90;1.00
6098;DHT22;3077;50.922;6.584;2023-11-19T05:42:40;12.90;1.00
6098;DHT22;3077;50.922;6.584;2023-11-19T05:45:07;12.90;1.00
6098;DHT22;3077;50.922;6.584;2023-11-19T05:47:33;12.80;1.00
6098;DHT22;3077;50.922;6.584;2023-11-19T05:49:59;12.60;1.00
6098;DHT22;3077;50.922;6.584;2023-11-19T05:52:24;12.80;1.00
6098;DHT22;3077;50.922;6.584;2023-11-19T05:54:50;12.80;1.00
6098;DHT22;3077;50.922;6.584;2023-11-19T05:57:17;12.80;1.00
6098;DHT22;3077;50.922;6.584;2023-11-19T05:59:49;13.00;1.00
6098;DHT22;3077;50.922;6.584;2023-11-19T06:02:15;12.80;1.00
6098;DHT22;3077;50.922;6.584;2023-11-19T06:04:41;12.80;1.00
6098;DHT22;3077;50.922;6.584;2023-11-19T06:07:09;12.80;1.00
6098;DHT22;3077;50.922;6.584;2023-11-19T06:09:35;12.80;1.00
6098;DHT22;3077;50.922;6.584;2023-11-19T06:12:00;12.80;1.00
6098;DHT22;3077;50.922;6.584;2023-11-19T06:14:27;12.80;1.00
6098;DHT22;3077;50.922;6.584;2023-11-19T06:16:53;12.80;1.00
6098;DHT22;3077;50.922;6.584;2023-11-19T06:19:19;12.70;1.00
6098;DHT22;3077;50.922;6.584;2023-11-19T06:21:44;12.80;1.00
6098;DHT22;3077;50.922;6.584;2023-11-19T06:24:10;12.80;1.00
6098;DHT22;3077;50.922;6.584;2023-11-19T06:26:35;12.80;1.00
6098;DHT22;3077;50.922;6.584;2023-11-19T06:29:01;12.80;1.00
6098;DHT22;3077;50.922;6.584;2023-11-19T06:31:26;12.80;1.00
6098;DHT22;3077;50.922;6.584;2023-11-19T06:33:52;12.80;1.00
6098;DHT22;3077;50.922;6.584;2023-11-19T06:36:18;12.80;1.00
6098;DHT22;3077;50.922;6.584;2023-11-19T06:38:44;12.80;1.00
6098;DHT22;3077;50.922;6.584;2023-11-19T06:41:09;12.70;1.00
6098;DHT22;3077;50.922;6.584;2023-11-19T06:43:36;12.70;1.00
6098;DHT22;3077;50.922;6.584;2023-11-19T06:46:02;12.70;1.00
6098;DHT22;3077;50.922;6.584;2023-11-19T06:48:27;12.70;1.00
6098;DHT22;3077;50.922;6.584;2023-11-19T06:50:53;12.70;1.00
6098;DHT22;3077;50.922;6.584;2023-11-19T06:53:19;12.80;1.00
6098;DHT22;3077;50.922;6.584;2023-11-19T06:55:44;12.70;99.90
6098;DHT22;3077;50.922;6.584;2023-11-19T06:58:10;12.70;99.90
6098;DHT22;3077;50.922;6.584;2023-11-19T07:00:37;12.70;99.90
6098;DHT22;3077;50.922;6.584;2023-11-19T07:03:03;12.70;1.00
6098;DHT22;3077;50.922;6.584;2023-11-19T07:05:28;12.70;1.00
6098;DHT22;3077;50.922;6.584;2023-11-19T07:07:55;12.60;1.00
6098;DHT22;3077;50.922;6.584;2023-11-19T07:10:21;12.60;1.00
6098;DHT22;3077;50.922;6.584;2023-11-19T07:12:47;12.60;1.00
6098;DHT22;3077;50.922;6.584;2023-11-19T07:15:13;12.50;1.00
6098;DHT22;3077;50.922;6.584;2023-11-19T07:17:39;12.50;1.00
6098;DHT22;3077;50.922;6.584;2023-11-19T07:20:09;12.50;1.00
6098;DHT22;3077;50.922;6.584;2023-11-19T07:22:37;12.50;1.00
6098;DHT22;3077;50.922;6.584;2023-11-19T07:25:04;12.50;1.00
6098;DHT22;3077;50.922;6.584;2023-11-19T07:27:29;12.40;99.90
6098;DHT22;3077;50.922;6.584;2023-11-19T07:29:55;12.70;99.90
6098;DHT22;3077;50.922;6.584;2023-11-19T07:32:21;12.50;1.00
6098;DHT22;3077;50.922;6.584;2023-11-19T07:34:46;12.50;99.90
6098;DHT22;3077;50.922;6.584;2023-11-19T07:37:12;12.50;1.00
6098;DHT22;3077;50.922;6.584;2023-11-19T07:39:38;12.50;99.90
6098;DHT22;3077;50.922;6.584;2023-11-19T07:42:06;12.60;99.90
6098;DHT22;3077;50.922;6.584;2023-11-19T07:44:32;12.50;97.70
6098;DHT22;3077;50.922;6.584;2023-11-19T07:46:57;12.50;99.90
6098;DHT22;3077;50.922;6.584;2023-11-19T07:49:23;12.50;72.70
6098;DHT22;3077;50.922;6.584;2023-11-19T07:51:49;12.60;99.90
6098;DHT22;3077;50.922;6.584;2023-11-19T07:54:15;12.50;99.90
6098;DHT22;3077;50.922;6.584;2023-11-19T07:56:40;12.50;99.90
6098;DHT22;3077;50.922;6.584;2023-11-19T07:59:06;12.50;99.90
6098;DHT22;3077;50.922;6.584;2023-11-19T08:01:32;12.50;99.90
6098;DHT22;3077;50.922;6.584;2023-11-19T08:03:57;12.60;1.00
6098;DHT22;3077;50.922;6.584;2023-11-19T08:06:23;12.50;99.90
6098;DHT22;3077;50.922;6.584;2023-11-19T08:08:48;12.50;1.00
6098;DHT22;3077;50.922;6.584;2023-11-19T08:11:14;12.50;99.90
6098;DHT22;3077;50.922;6.584;2023-11-19T08:13:40;12.50;1.00
6098;DHT22;3077;50.922;6.584;2023-11-19T08:16:06;12.60;1.00
6098;DHT22;3077;50.922;6.584;2023-11-19T08:18:32;12.60;99.90
6098;DHT22;3077;50.922;6.584;2023-11-19T08:20:57;12.70;99.90
6098;DHT22;3077;50.922;6.584;2023-11-19T08:23:24;12.70;99.90
6098;DHT22;3077;50.922;6.584;2023-11-19T08:25:51;12.70;94.90
6098;DHT22;3077;50.922;6.584;2023-11-19T08:28:17;12.70;1.00
6098;DHT22;3077;50.922;6.584;2023-11-19T08:30:42;12.70;1.00
6098;DHT22;3077;50.922;6.584;2023-11-19T08:33:09;12.80;1.00
6098;DHT22;3077;50.922;6.584;2023-11-19T08:35:35;12.80;99.90
6098;DHT22;3077;50.922;6.584;2023-11-19T08:38:00;12.80;99.90
6098;DHT22;3077;50.922;6.584;2023-11-19T08:40:27;12.80;99.90
6098;DHT22;3077;50.922;6.584;2023-11-19T08:42:52;12.90;1.00
6098;DHT22;3077;50.922;6.584;2023-11-19T08:45:18;12.90;99.90
6098;DHT22;3077;50.922;6.584;2023-11-19T08:47:44;12.90;99.90
6098;DHT22;3077;50.922;6.584;2023-11-19T08:50:11;12.90;1.00
6098;DHT22;3077;50.922;6.584;2023-11-19T08:52:37;12.90;99.90
6098;DHT22;3077;50.922;6.584;2023-11-19T08:55:03;13.00;99.90
6098;DHT22;3077;50.922;6.584;2023-11-19T08:57:31;13.00;54.80
6098;DHT22;3077;50.922;6.584;2023-11-19T08:59:56;13.10;99.90
6098;DHT22;3077;50.922;6.584;2023-11-19T09:02:22;13.00;99.90
6098;DHT22;3077;50.922;6.584;2023-11-19T09:04:47;13.10;99.90
6098;DHT22;3077;50.922;6.584;2023-11-19T09:07:13;13.10;1.00
6098;DHT22;3077;50.922;6.584;2023-11-19T09:09:39;13.10;99.90
6098;DHT22;3077;50.922;6.584;2023-11-19T09:12:04;13.10;99.90
6098;DHT22;3077;50.922;6.584;2023-11-19T09:14:30;13.20;99.90
6098;DHT22;3077;50.922;6.584;2023-11-19T09:16:56;13.20;22.70
6098;DHT22;3077;50.922;6.584;2023-11-19T09:19:22;13.20;96.90
6098;DHT22;3077;50.922;6.584;2023-11-19T09:21:47;13.20;1.00
6098;DHT22;3077;50.922;6.584;2023-11-19T09:24:14;13.30;1.00
6098;DHT22;3077;50.922;6.584;2023-11-19T09:26:40;13.30;99.90
6098;DHT22;3077;50.922;6.584;2023-11-19T09:29:07;13.30;99.90
6098;DHT22;3077;50.922;6.584;2023-11-19T09:31:33;13.30;83.90
6098;DHT22;3077;50.922;6.584;2023-11-19T09:34:00;13.40;10.10
6098;DHT22;3077;50.922;6.584;2023-11-19T09:36:25;13.50;99.90
6098;DHT22;3077;50.922;6.584;2023-11-19T09:38:51;13.50;99.90
6098;DHT22;3077;50.922;6.584;2023-11-19T09:41:17;13.50;1.00
6098;DHT22;3077;50.922;6.584;2023-11-19T09:43:45;13.50;1.00
6098;DHT22;3077;50.922;6.584;2023-11-19T09:46:13;13.60;1.00
6098;DHT22;3077;50.922;6.584;2023-11-19T09:48:41;13.70;99.90
6098;DHT22;3077;50.922;6.584;2023-11-19T09:51:08;13.70;1.00
6098;DHT22;3077;50.922;6.584;2023-11-19T09:53:35;13.70;1.00
6098;DHT22;3077;50.922;6.584;2023-11-19T09:56:03;13.70;6.90
6098;DHT22;3077;50.922;6.584;2023-11-19T09:58:32;13.80;99.90
6098;DHT22;3077;50.922;6.584;2023-11-19T10:01:01;13.80;1.00
6098;DHT22;3077;50.922;6.584;2023-11-19T10:03:34;13.80;1.00
6098;DHT22;3077;50.922;6.584;2023-11-19T10:06:01;13.80;99.90
6098;DHT22;3077;50.922;6.584;2023-11-19T10:08:27;13.90;99.90
6098;DHT22;3077;50.922;6.584;2023-11-19T10:10:53;13.90;46.80
6098;DHT22;3077;50.922;6.584;2023-11-19T10:13:19;13.90;99.90
6098;DHT22;3077;50.922;6.584;2023-11-19T10:15:44;13.90;99.90
6098;DHT22;3077;50.922;6.584;2023-11-19T10:18:10;13.90;1.00
6098;DHT22;3077;50.922;6.584;2023-11-19T10:20:42;14.00;1.00
6098;DHT22;3077;50.922;6.584;2023-11-19T10:23:09;14.00;18.70
6098;DHT22;3077;50.922;6.584;2023-11-19T10:25:35;14.10;1.00
6098;DHT22;3077;50.922;6.584;2023-11-19T10:28:02;14.10;99.90
6098;DHT22;3077;50.922;6.584;2023-11-19T10:30:29;14.20;99.90
6098;DHT22;3077;50.922;6.584;2023-11-19T10:33:08;14.30;99.90
6098;DHT22;3077;50.922;6.584;2023-11-19T10:35:36;14.40;99.90
6098;DHT22;3077;50.922;6.584;2023-11-19T10:38:13;14.40;99.90
6098;DHT22;3077;50.922;6.584;2023-11-19T10:40:40;14.40;99.90
6098;DHT22;3077;50.922;6.584;2023-11-19T10:43:07;14.50;1.00
6098;DHT22;3077;50.922;6.584;2023-11-19T10:45:34;14.40;99.90
6098;DHT22;3077;50.922;6.584;2023-11-19T10:48:00;14.30;27.80
6098;DHT22;3077;50.922;6.584;2023-11-19T10:50:27;14.30;1.00
6098;DHT22;3077;50.922;6.584;2023-11-19T10:52:56;14.40;99.90
6098;DHT22;3077;50.922;6.584;2023-11-19T10:55:29;14.40;99.90
6098;DHT22;3077;50.922;6.584;2023-11-19T10:58:04;14.40;99.90
6098;DHT22;3077;50.922;6.584;2023-11-19T11:00:41;14.30;1.00
6098;DHT22;3077;50.922;6.584;2023-11-19T11:05:40;14.20;99.90
6098;DHT22;3077;50.922;6.584;2023-11-19T11:08:07;14.40;99.90
6098;DHT22;3077;50.922;6.584;2023-11-19T11:10:38;14.60;1.00
6098;DHT22;3077;50.922;6.584;2023-11-19T11:13:05;14.90;1.00
6098;DHT22;3077;50.922;6.584;2023-11-19T11:15:31;15.00;99.90
6098;DHT22;3077;50.922;6.584;2023-11-19T11:18:00;15.10;99.90
6098;DHT22;3077;50.922;6.584;2023-11-19T11:20:33;15.20;99.90
6098;DHT22;3077;50.922;6.584;2023-11-19T11:39:33;16.20;1.00
6098;DHT22;3077;50.922;6.584;2023-11-19T11:44:58;16.40;99.90
6098;DHT22;3077;50.922;6.584;2023-11-19T11:47:25;16.70;99.90
6098;DHT22;3077;50.922;6.584;2023-11-19T11:49:51;16.50;1.00
6098;DHT22;3077;50.922;6.584;2023-11-19T11:52:17;16.60;99.90
6098;DHT22;3077;50.922;6.584;2023-11-19T11:54:44;16.80;99.90
6098;DHT22;3077;50.922;6.584;2023-11-19T11:57:11;17.10;99.90
6098;DHT22;3077;50.922;6.584;2023-11-19T12:02:04;17.10;99.90
6098;DHT22;3077;50.922;6.584;2023-11-19T12:04:30;17.30;81.20
6098;DHT22;3077;50.922;6.584;2023-11-19T12:07:19;17.30;67.50
6098;DHT22;3077;50.922;6.584;2023-11-19T12:09:51;17.40;92.00
6098;DHT22;3077;50.922;6.584;2023-11-19T12:15:08;17.50;60.20
6098;DHT22;3077;50.922;6.584;2023-11-19T12:17:40;17.90;13.80
6098;DHT22;3077;50.922;6.584;2023-11-19T12:20:07;17.80;1.00
6098;DHT22;3077;50.922;6.584;2023-11-19T12:22:36;17.40;3.40
6098;DHT22;3077;50.922;6.584;2023-11-19T12:25:02;17.40;1.00
6098;DHT22;3077;50.922;6.584;2023-11-19T12:27:29;17.70;17.20
6098;DHT22;3077;50.922;6.584;2023-11-19T12:29:55;17.50;99.90
6098;DHT22;3077;50.922;6.584;2023-11-19T12:32:22;17.30;1.00
6098;DHT22;3077;50.922;6.584;2023-11-19T12:34:48;16.60;99.90
6098;DHT22;3077;50.922;6.584;2023-11-19T12:37:13;16.30;99.90
6098;DHT22;3077;50.922;6.584;2023-11-19T12:39:39;16.00;99.90
6098;DHT22;3077;50.922;6.584;2023-11-19T12:42:05;15.80;1.00
6098;DHT22;3077;50.922;6.584;2023-11-19T12:44:31;15.70;1.00
6098;DHT22;3077;50.922;6.584;2023-11-19T12:47:08;15.60;1.00
6098;DHT22;3077;50.922;6.584;2023-11-19T12:49:36;16.00;1.00
6098;DHT22;3077;50.922;6.584;2023-11-19T12:52:10;16.70;1.00
6098;DHT22;3077;50.922;6.584;2023-11-19T12:54:36;17.00;99.90
6098;DHT22;3077;50.922;6.584;2023-11-19T12:57:03;16.90;99.90
6098;DHT22;3077;50.922;6.584;2023-11-19T12:59:30;17.00;1.00
6098;DHT22;3077;50.922;6.584;2023-11-19T13:01:57;17.20;1.00
6098;DHT22;3077;50.922;6.584;2023-11-19T13:04:23;17.50;99.90
6098;DHT22;3077;50.922;6.584;2023-11-19T13:06:50;18.00;99.90
6098;DHT22;3077;50.922;6.584;2023-11-19T13:09:28;18.10;99.90
6098;DHT22;3077;50.922;6.584;2023-11-19T13:11:54;18.10;71.50
6098;DHT22;3077;50.922;6.584;2023-11-19T13:14:20;17.70;1.00
6098;DHT22;3077;50.922;6.584;2023-11-19T13:16:46;17.40;1.00
6098;DHT22;3077;50.922;6.584;2023-11-19T13:19:13;17.50;1.00
6098;DHT22;3077;50.922;6.584;2023-11-19T13:21:38;17.40;58.60
6098;DHT22;3077;50.922;6.584;2023-11-19T13:24:06;17.30;99.90
6098;DHT22;3077;50.922;6.584;2023-11-19T13:26:31;17.40;46.60
6098;DHT22;3077;50.922;6.584;2023-11-19T13:28:57;17.70;18.80
6098;DHT22;3077;50.922;6.584;2023-11-19T13:31:23;17.70;21.40
6098;DHT22;3077;50.922;6.584;2023-11-19T13:33:48;17.90;13.40
6098;DHT22;3077;50.922;6.584;2023-11-19T13:36:14;18.20;1.00
6098;DHT22;3077;50.922;6.584;2023-11-19T13:38:40;18.50;1.00
6098;DHT22;3077;50.922;6.584;2023-11-19T13:41:09;18.50;84.20
6098;DHT22;3077;50.922;6.584;2023-11-19T13:43:36;18.70;99.90
6098;DHT22;3077;50.922;6.584;2023-11-19T13:46:02;18.70;1.00
6098;DHT22;3077;50.922;6.584;2023-11-19T13:48:29;18.80;1.00
6098;DHT22;3077;50.922;6.584;2023-11-19T13:50:55;18.80;99.90
6098;DHT22;3077;50.922;6.584;2023-11-19T13:53:21;18.40;1.00
6098;DHT22;3077;50.922;6.584;2023-11-19T13:55:46;18.50;1.00
6098;DHT22;3077;50.922;6.584;2023-11-19T13:58:13;18.80;1.00
6098;DHT22;3077;50.922;6.584;2023-11-19T14:00:38;19.00;1.00
6098;DHT22;3077;50.922;6.584;2023-11-19T14:03:04;19.00;1.00
6098;DHT22;3077;50.922;6.584;2023-11-19T14:05:30;18.70;1.00
6098;DHT22;3077;50.922;6.584;2023-11-19T14:07:56;18.00;1.00
6098;DHT22;3077;50.922;6.584;2023-11-19T14:10:23;17.30;1.00
6098;DHT22;3077;50.922;6.584;2023-11-19T14:12:49;16.90;1.00
6098;DHT22;3077;50.922;6.584;2023-11-19T14:15:17;16.50;1.00
6098;DHT22;3077;50.922;6.584;2023-11-19T14:17:43;16.30;1.00
6098;DHT22;3077;50.922;6.584;2023-11-19T14:20:09;16.00;99.90
6098;DHT22;3077;50.922;6.584;2023-11-19T14:22:43;15.70;95.90
6098;DHT22;3077;50.922;6.584;2023-11-19T14:25:10;15.30;99.90
6098;DHT22;3077;50.922;6.584;2023-11-19T14:27:43;15.10;99.90
6098;DHT22;3077;50.922;6.584;2023-11-19T14:30:10;14.90;1.00
6098;DHT22;3077;50.922;6.584;2023-11-19T14:32:41;14.60;99.90
6098;DHT22;3077;50.922;6.584;2023-11-19T14:35:11;14.40;99.90
6098;DHT22;3077;50.922;6.584;2023-11-19T14:37:36;14.50;1.00
6098;DHT22;3077;50.922;6.584;2023-11-19T14:40:02;15.70;99.90
6098;DHT22;3077;50.922;6.584;2023-11-19T14:42:32;15.40;99.90
6098;DHT22;3077;50.922;6.584;2023-11-19T14:44:58;15.70;99.90
6098;DHT22;3077;50.922;6.584;2023-11-19T14:47:24;16.00;99.90
6098;DHT22;3077;50.922;6.584;2023-11-19T14:49:50;16.20;99.90
6098;DHT22;3077;50.922;6.584;2023-11-19T14:52:15;16.00;99.90
6098;DHT22;3077;50.922;6.584;2023-11-19T14:54:41;16.10;99.90
6098;DHT22;3077;50.922;6.584;2023-11-19T14:57:07;16.10;99.90
6098;DHT22;3077;50.922;6.584;2023-11-19T14:59:36;16.10;99.90
6098;DHT22;3077;50.922;6.584;2023-11-19T15:02:03;15.60;99.90
6098;DHT22;3077;50.922;6.584;2023-11-19T15:04:29;15.20;1.00
6098;DHT22;3077;50.922;6.584;2023-11-19T15:06:58;14.80;1.00
6098;DHT22;3077;50.922;6.584;2023-11-19T15:09:24;14.50;99.90
6098;DHT22;3077;50.922;6.584;2023-11-19T15:11:50;14.30;1.00
6098;DHT22;3077;50.922;6.584;2023-11-19T15:14:16;14.10;99.90
6098;DHT22;3077;50.922;6.584;2023-11-19T15:16:47;13.90;1.00
6098;DHT22;3077;50.922;6.584;2023-11-19T15:19:13;13.80;99.90
6098;DHT22;3077;50.922;6.584;2023-11-19T15:21:42;13.50;1.00
6098;DHT22;3077;50.922;6.584;2023-11-19T15:24:08;13.20;99.90
6098;DHT22;3077;50.922;6.584;2023-11-19T15:26:35;13.00;99.90
6098;DHT22;3077;50.922;6.584;2023-11-19T15:29:01;13.00;1.00
6098;DHT22;3077;50.922;6.584;2023-11-19T15:31:28;12.80;67.10
6098;DHT22;3077;50.922;6.584;2023-11-19T15:33:54;12.70;99.90
6098;DHT22;3077;50.922;6.584;2023-11-19T15:36:19;12.70;99.90
6098;DHT22;3077;50.922;6.584;2023-11-19T15:38:45;12.70;99.90
6098;DHT22;3077;50.922;6.584;2023-11-19T15:41:11;12.70;99.90
6098;DHT22;3077;50.922;6.584;2023-11-19T15:43:37;12.70;99.90
6098;DHT22;3077;50.922;6.584;2023-11-19T15:46:09;12.80;1.00
6098;DHT22;3077;50.922;6.584;2023-11-19T15:48:36;12.80;28.50
6098;DHT22;3077;50.922;6.584;2023-11-19T15:56:15;13.00;1.00
6098;DHT22;3077;50.922;6.584;2023-11-19T15:58:41;12.80;23.10
6098;DHT22;3077;50.922;6.584;2023-11-19T16:04:28;13.10;99.90
6098;DHT22;3077;50.922;6.584;2023-11-19T16:06:54;13.10;99.90
6098;DHT22;3077;50.922;6.584;2023-11-19T16:09:19;13.10;1.00
6098;DHT22;3077;50.922;6.584;2023-11-19T16:11:47;13.10;99.90
6098;DHT22;3077;50.922;6.584;2023-11-19T16:14:13;13.10;99.90
6098;DHT22;3077;50.922;6.584;2023-11-19T16:16:40;13.20;1.00
6098;DHT22;3077;50.922;6.584;2023-11-19T16:19:06;13.20;99.90
6098;DHT22;3077;50.922;6.584;2023-11-19T16:21:33;13.20;99.90
6098;DHT22;3077;50.922;6.584;2023-11-19T16:24:03;13.20;99.90
6098;DHT22;3077;50.922;6.584;2023-11-19T16:26:30;13.20;1.00
6098;DHT22;3077;50.922;6.584;2023-11-19T16:28:58;13.20;1.00
6098;DHT22;3077;50.922;6.584;2023-11-19T16:31:24;13.20;99.90
6098;DHT22;3077;50.922;6.584;2023-11-19T16:33:50;13.20;99.90
6098;DHT22;3077;50.922;6.584;2023-11-19T16:36:15;13.20;99.90
6098;DHT22;3077;50.922;6.584;2023-11-19T16:38:41;13.20;99.90
6098;DHT22;3077;50.922;6.584;2023-11-19T16:41:07;13.20;99.90